Pacific Titan — WCZ6844 — position and weather

sailwx.info

Track history (hours):
 
Tides and Currents Weather Stations Pressure Air Temp Water Temp Dewpoint Dewpoint Depression Visibility Wind Speed Wind Dir Waves Ship Positions

Pacific Titan

Owner: WESTERN TOWBOAT CO, SEATTLE, WA. More information available from US FCC via Universal Licensing System and Coast Guard Vessel Documentation Center.

Last reported at 2017-Feb-22 00:33 UTC. Time now 2017-Feb-22 03:57 UTC.
Position N 47°39' W 122°22'.

Type: Tow > 200 m length. MMSI: 338855000.

Date/timePositionNaut miles runAvg speedWind from/ knotsBaromVisibWave heightAir tempDewpointWater temp
2017-Feb-22 00:33N 47°39' W 122°22'3 2.7
2017-Feb-21 23:33N 47°37' W 122°24'2 1.6
2017-Feb-21 22:33N 47°38' W 122°26'10 9.9
2017-Feb-21 21:33N 47°48' W 122°27'10 9.9
2017-Feb-21 20:33N 47°57' W 122°34'1010.0
2017-Feb-21 19:33N 48°06' W 122°40'1010.1
2017-Feb-21 18:33N 48°14' W 122°48'1110.8
2017-Feb-21 17:34N 48°25' W 122°45'1110.6
2017-Feb-21 16:33N 48°35' W 122°45'10 9.7
2017-Feb-21 15:31N 48°45' W 122°48'1010.9
2017-Feb-21 14:33N 48°51' W 123°02'1111.3
2017-Feb-21 13:33N 48°58' W 123°15'1111.0
2017-Feb-21 12:33N 49°06' W 123°27'1110.9
2017-Feb-21 11:33N 49°13' W 123°39'1110.7
2017-Feb-21 10:33N 49°18' W 123°54'1110.7
2017-Feb-21 09:33N 49°22' W 124°09'1010.2
2017-Feb-21 08:32N 49°27' W 124°23'1010.6
2017-Feb-21 07:33N 49°34' W 124°34'1010.4
2017-Feb-21 06:33N 49°42' W 124°45'1010.5
2017-Feb-21 05:33N 49°49' W 124°56'1010.5
2017-Feb-21 04:33N 49°57' W 125°08'1111.2
2017-Feb-21 03:33N 50°06' W 125°18'9 9.5
2017-Feb-21 02:34N 50°15' W 125°23'44 8.2
2017-Feb-20 21:13N 50°30' W 126°28'24 8.9
2017-Feb-20 18:33N 50°43' W 126°59'1010.0
2017-Feb-20 17:34N 50°48' W 127°12'1010.1
2017-Feb-20 16:33N 50°55' W 127°24'10 9.8
2017-Feb-20 15:34N 51°00' W 127°37'10 9.7
2017-Feb-20 14:34N 51°07' W 127°48'20 9.7
2017-Feb-20 12:30N 51°25' W 128°03'  
2017-Feb-12 14:23N 51°31' W 127°52'1210.1
2017-Feb-12 13:10N 51°19' W 127°54'711.0
2017-Feb-12 12:33N 51°12' W 127°52'1110.7
2017-Feb-12 11:33N 51°03' W 127°42'1010.2
2017-Feb-12 10:33N 50°57' W 127°29'10 9.8
2017-Feb-12 09:33N 50°51' W 127°18'1110.0
2017-Feb-12 08:25N 50°44' W 127°03'9 9.6
2017-Feb-12 07:26N 50°39' W 126°50'4311.0
2017-Feb-12 03:30N 50°23' W 125°48'1312.5
2017-Feb-12 02:29N 50°20' W 125°28'910.1
2017-Feb-12 01:33N 50°12' W 125°22'6 6.5
2017-Feb-12 00:33N 50°06' W 125°18'  
Track history (hours):
 
Tides and Currents Weather Stations Pressure Air Temp Water Temp Dewpoint Dewpoint Depression Visibility Wind Speed Wind Dir Waves Ship Positions

Pacific Titan

Owner: WESTERN TOWBOAT CO, SEATTLE, WA. More information available from US FCC via Universal Licensing System and Coast Guard Vessel Documentation Center.

Last reported at 2017-Feb-22 00:33 UTC. Time now 2017-Feb-22 03:57 UTC.
Position N 47°39' W 122°22'.

Type: Tow > 200 m length. MMSI: 338855000.

Date/timePositionNaut miles runAvg speedWind from/ knotsBaromVisibWave heightAir tempDewpointWater temp
2017-Feb-22 00:33N 47°39' W 122°22'3 2.7
2017-Feb-21 23:33N 47°37' W 122°24'2 1.6
2017-Feb-21 22:33N 47°38' W 122°26'10 9.9
2017-Feb-21 21:33N 47°48' W 122°27'10 9.9
2017-Feb-21 20:33N 47°57' W 122°34'1010.0
2017-Feb-21 19:33N 48°06' W 122°40'1010.1
2017-Feb-21 18:33N 48°14' W 122°48'1110.8
2017-Feb-21 17:34N 48°25' W 122°45'1110.6
2017-Feb-21 16:33N 48°35' W 122°45'10 9.7
2017-Feb-21 15:31N 48°45' W 122°48'1010.9
2017-Feb-21 14:33N 48°51' W 123°02'1111.3
2017-Feb-21 13:33N 48°58' W 123°15'1111.0
2017-Feb-21 12:33N 49°06' W 123°27'1110.9
2017-Feb-21 11:33N 49°13' W 123°39'1110.7
2017-Feb-21 10:33N 49°18' W 123°54'1110.7
2017-Feb-21 09:33N 49°22' W 124°09'1010.2
2017-Feb-21 08:32N 49°27' W 124°23'1010.6
2017-Feb-21 07:33N 49°34' W 124°34'1010.4
2017-Feb-21 06:33N 49°42' W 124°45'1010.5
2017-Feb-21 05:33N 49°49' W 124°56'1010.5
2017-Feb-21 04:33N 49°57' W 125°08'1111.2
2017-Feb-21 03:33N 50°06' W 125°18'9 9.5
2017-Feb-21 02:34N 50°15' W 125°23'44 8.2
2017-Feb-20 21:13N 50°30' W 126°28'24 8.9
2017-Feb-20 18:33N 50°43' W 126°59'1010.0
2017-Feb-20 17:34N 50°48' W 127°12'1010.1
2017-Feb-20 16:33N 50°55' W 127°24'10 9.8
2017-Feb-20 15:34N 51°00' W 127°37'10 9.7
2017-Feb-20 14:34N 51°07' W 127°48'20 9.7
2017-Feb-20 12:30N 51°25' W 128°03'  
2017-Feb-12 14:23N 51°31' W 127°52'1210.1
2017-Feb-12 13:10N 51°19' W 127°54'711.0
2017-Feb-12 12:33N 51°12' W 127°52'1110.7
2017-Feb-12 11:33N 51°03' W 127°42'1010.2
2017-Feb-12 10:33N 50°57' W 127°29'10 9.8
2017-Feb-12 09:33N 50°51' W 127°18'1110.0
2017-Feb-12 08:25N 50°44' W 127°03'9 9.6
2017-Feb-12 07:26N 50°39' W 126°50'4311.0
2017-Feb-12 03:30N 50°23' W 125°48'1312.5
2017-Feb-12 02:29N 50°20' W 125°28'910.1
2017-Feb-12 01:33N 50°12' W 125°22'6 6.5
2017-Feb-12 00:33N 50°06' W 125°18'  

Dump ship's entire track history